Terminal Aerodrome Forecast
Issued by NWS

Home | Current Version | Previous Version | Text Only | Print | Product List | Glossary On
Versions: 1 2 3 4 5 6 7 8 9 10 11 12 13 14 15
000
FTUS43 KGRR 240534
TAFLAN
TAF
KLAN 240534Z 2406/2506 VRB04KT P6SM SCT150
     FM240800 19007KT P6SM VCSH BKN070
     FM241100 20009KT P6SM VCTS BKN060CB
     FM241700 21012G22KT P6SM OVC200
     FM250000 23009KT P6SM VCTS BKN040CB=

USA.gov is the U.S. government's official web portal to all federal, state and local government web resources and services.